Forside
METAR-TAF:

METAR-TAF

Lufthavne :

Le Havre, Frankrig

Breddekreds: 49-31N, længdekreds: 000-04E, højde: 100 m

Aktuelle vejr

Denne rapport blev lavet for 26 minutter siden, kl. 02:00 UTC
Vind stille
Temperatur 11°C
Fugtighed 94%
Tryk 1034 hPa
Sigt 10 km eller mere
ingen skyer under 1500m og ingen cumulonimbus

METAR: LFOH 250200Z AUTO 00000KT CAVOK 11/10 Q1034

Tid: 04:26 (02:26 UTC)


TAF: fraværende

Vejrobservationer og prognoser fra mere end 4000 lufthavne (METAR og TAF).

De gule og røde prikker repræsenterer de meteorologiske stationer.

Flyt musen over at se navnet på stationen.

Så klik over at se vejr observationer og prognoser.

At skifte det kort: Klik på de grønne knapper med et sort kors for at zoome ind; på den grønne knap med en bindestreg for at zoome ud; eller på de grønne pile for tilstødende kort.


METAR-TAF: